Time;durP1;ratioP1;P1;durP2;ratioP2;P2;SDS_P1;SDS_P2;PMS_P1;PMS_P2;Temp;Humidity;BMP_temperature;BMP_pressure;BME280_temperature;BME280_humidity;BME280_pressure;Samples;Min_cycle;Max_cycle;Signal;HPM_P1;HPM_P2
2022/07/04 00:00:18;;;;;;;1.10;1.10;;;;;;;;;;5013444;28;20790;-71
2022/07/04 00:02:44;;;;;;;1.60;1.50;;;;;;;;;;5013237;28;20701;-74
2022/07/04 00:05:11;;;;;;;5.50;1.30;;;;;;;;;;5013410;28;20416;-72
2022/07/04 00:07:40;;;;;;;1.07;1.07;;;;;;;;;;4995812;28;20433;-73
2022/07/04 00:10:07;;;;;;;2.40;1.30;;;;;;;;;;5016657;28;20462;-72
2022/07/04 00:12:33;;;;;;;2.50;1.40;;;;;;;;;;5017600;28;20833;-72
2022/07/04 00:15:00;;;;;;;1.57;1.30;;;;;;;;;;5017374;28;20416;-73
2022/07/04 00:17:26;;;;;;;2.13;1.00;;;;;;;;;;5017239;28;20416;-72
2022/07/04 00:19:51;;;;;;;1.70;1.00;;;;;;;;;;5017251;28;20473;-72
2022/07/04 00:22:17;;;;;;;2.40;0.93;;;;;;;;;;5017016;28;20467;-73
2022/07/04 00:24:43;;;;;;;2.77;1.20;;;;;;;;;;5017225;28;20413;-72
2022/07/04 00:27:09;;;;;;;9.47;1.57;;;;;;;;;;5017135;28;20405;-73
2022/07/04 00:29:36;;;;;;;1.00;1.00;;;;;;;;;;5017003;28;20461;-72
2022/07/04 00:32:02;;;;;;;1.97;1.30;;;;;;;;;;5017020;28;20403;-73
2022/07/04 00:34:28;;;;;;;1.80;1.30;;;;;;;;;;5016992;28;20489;-73
2022/07/04 00:36:54;;;;;;;1.40;1.30;;;;;;;;;;5016946;28;20909;-73
2022/07/04 00:39:20;;;;;;;0.90;0.90;;;;;;;;;;5016921;28;20414;-73
2022/07/04 00:41:46;;;;;;;3.23;1.10;;;;;;;;;;5016776;28;20466;-73
2022/07/04 00:44:13;;;;;;;4.80;1.07;;;;;;;;;;4999070;28;20562;-73
2022/07/04 00:46:40;;;;;;;1.00;1.00;;;;;;;;;;4999212;28;20990;-72
2022/07/04 00:49:07;;;;;;;4.73;1.20;;;;;;;;;;5016765;28;20909;-72
2022/07/04 00:51:33;;;;;;;2.77;1.20;;;;;;;;;;5016675;28;20415;-72
2022/07/04 00:53:59;;;;;;;1.13;1.13;;;;;;;;;;5016633;28;20410;-72
2022/07/04 00:56:26;;;;;;;1.20;1.10;;;;;;;;;;5016562;28;20939;-72
2022/07/04 00:58:53;;;;;;;1.20;1.20;;;;;;;;;;4998906;28;20415;-72
2022/07/04 01:01:19;;;;;;;2.10;1.30;;;;;;;;;;5016543;28;20415;-72
2022/07/04 01:03:45;;;;;;;3.77;1.33;;;;;;;;;;5009263;28;20909;-72
2022/07/04 01:06:11;;;;;;;3.23;1.30;;;;;;;;;;5016333;28;20768;-72
2022/07/04 01:08:41;;;;;;;2.10;1.23;;;;;;;;;;5016392;28;20419;-72
2022/07/04 01:11:07;;;;;;;1.67;1.27;;;;;;;;;;5015050;28;20422;-72
2022/07/04 01:13:33;;;;;;;2.97;1.30;;;;;;;;;;5016255;28;20874;-72
2022/07/04 01:15:59;;;;;;;2.10;1.03;;;;;;;;;;5016183;28;20490;-72
2022/07/04 01:18:25;;;;;;;1.63;1.40;;;;;;;;;;5016192;28;20493;-71
2022/07/04 01:20:51;;;;;;;5.97;1.40;;;;;;;;;;5016120;28;20422;-72
2022/07/04 01:23:17;;;;;;;2.03;1.30;;;;;;;;;;5016037;28;20472;-72
2022/07/04 01:25:44;;;;;;;1.73;1.13;;;;;;;;;;5014853;28;20423;-72
2022/07/04 01:28:10;;;;;;;1.37;1.20;;;;;;;;;;5016064;28;20455;-72
2022/07/04 01:30:36;;;;;;;1.00;1.00;;;;;;;;;;5016046;28;20852;-72
2022/07/04 01:33:02;;;;;;;1.57;1.47;;;;;;;;;;5014658;28;20430;-72
2022/07/04 01:35:29;;;;;;;3.67;1.93;;;;;;;;;;5015806;28;20418;-72
2022/07/04 01:37:55;;;;;;;1.40;1.40;;;;;;;;;;5015822;28;20434;-72
2022/07/04 01:40:21;;;;;;;2.40;1.33;;;;;;;;;;5014542;28;20915;-72
2022/07/04 01:42:47;;;;;;;2.10;2.00;;;;;;;;;;5015539;28;20463;-72
2022/07/04 01:45:13;;;;;;;2.80;2.00;;;;;;;;;;5015698;28;20408;-72
2022/07/04 01:47:39;;;;;;;16.17;3.20;;;;;;;;;;5015611;28;20386;-72
2022/07/04 01:50:05;;;;;;;4.37;3.30;;;;;;;;;;5015772;28;20450;-72
2022/07/04 01:52:32;;;;;;;2.40;2.27;;;;;;;;;;5015539;28;20450;-72
2022/07/04 01:54:58;;;;;;;3.03;2.50;;;;;;;;;;5015490;28;20397;-72
2022/07/04 01:57:24;;;;;;;8.50;2.57;;;;;;;;;;5015462;28;20904;-72
2022/07/04 02:02:34;;;;;;;2.17;2.03;;;;;;;;;;5015309;28;20499;-72
2022/07/04 02:05:00;;;;;;;2.10;1.87;;;;;;;;;;5015354;28;20404;-72
2022/07/04 02:07:26;;;;;;;4.03;1.80;;;;;;;;;;5015173;28;20423;-72
2022/07/04 02:09:52;;;;;;;2.37;1.77;;;;;;;;;;5015207;28;20420;-73
2022/07/04 02:15:03;;;;;;;1.30;1.30;;;;;;;;;;5015152;28;20393;-72
2022/07/04 02:17:29;;;;;;;2.37;1.30;;;;;;;;;;5015041;28;20408;-72
2022/07/04 02:19:55;;;;;;;1.30;1.20;;;;;;;;;;5015019;28;20819;-73
2022/07/04 02:22:21;;;;;;;1.50;1.40;;;;;;;;;;5014808;28;20517;-72
2022/07/04 02:24:47;;;;;;;1.40;1.40;;;;;;;;;;5014946;28;20418;-72
2022/07/04 02:27:13;;;;;;;2.70;1.40;;;;;;;;;;5014897;28;20753;-72
2022/07/04 02:29:40;;;;;;;1.20;1.20;;;;;;;;;;5014906;28;20421;-72
2022/07/04 02:32:06;;;;;;;2.30;1.20;;;;;;;;;;5014398;28;20423;-73
2022/07/04 02:34:32;;;;;;;2.73;1.87;;;;;;;;;;5014729;28;20781;-73
2022/07/04 02:36:58;;;;;;;2.27;2.00;;;;;;;;;;5014643;28;20862;-72
2022/07/04 02:39:24;;;;;;;4.83;2.40;;;;;;;;;;5014638;28;20672;-72
2022/07/04 02:41:50;;;;;;;6.47;2.83;;;;;;;;;;5014684;28;20776;-73
2022/07/04 02:44:16;;;;;;;2.20;2.10;;;;;;;;;;5014528;28;20482;-72
2022/07/04 02:46:42;;;;;;;2.30;2.10;;;;;;;;;;5014540;28;20438;-72
2022/07/04 02:49:08;;;;;;;2.03;1.93;;;;;;;;;;5014453;28;20503;-73
2022/07/04 02:51:34;;;;;;;7.97;2.30;;;;;;;;;;5014418;28;20423;-73
2022/07/04 02:54:00;;;;;;;2.10;2.00;;;;;;;;;;4996732;28;20435;-73
2022/07/04 02:56:26;;;;;;;2.90;2.23;;;;;;;;;;5014385;28;20413;-73
2022/07/04 02:58:53;;;;;;;2.40;1.73;;;;;;;;;;5014355;28;20485;-73
2022/07/04 03:01:19;;;;;;;1.67;1.40;;;;;;;;;;5014194;28;20946;-73
2022/07/04 03:03:46;;;;;;;4.07;1.70;;;;;;;;;;5014036;28;20538;-72
2022/07/04 03:06:12;;;;;;;1.50;1.40;;;;;;;;;;4996544;28;20438;-73
2022/07/04 03:08:38;;;;;;;1.30;1.20;;;;;;;;;;5014071;28;20418;-73
2022/07/04 03:11:05;;;;;;;0.90;0.90;;;;;;;;;;5014128;28;20496;-73
2022/07/04 03:13:31;;;;;;;1.20;1.10;;;;;;;;;;5013973;28;20899;-72
2022/07/04 03:15:57;;;;;;;2.60;1.70;;;;;;;;;;5014284;28;20415;-73
2022/07/04 03:18:23;;;;;;;2.47;1.23;;;;;;;;;;5013899;28;20409;-73
2022/07/04 03:20:49;;;;;;;1.87;1.00;;;;;;;;;;5013894;28;20739;-73
2022/07/04 03:23:15;;;;;;;2.83;0.90;;;;;;;;;;5013853;28;20476;-73
2022/07/04 03:25:41;;;;;;;3.50;1.10;;;;;;;;;;5013817;28;20446;-73
2022/07/04 03:28:07;;;;;;;1.47;1.37;;;;;;;;;;5013852;28;20449;-73
2022/07/04 03:30:33;;;;;;;5.30;1.37;;;;;;;;;;5013800;28;20478;-73
2022/07/04 03:32:59;;;;;;;1.37;1.33;;;;;;;;;;5013801;28;20412;-73
2022/07/04 03:35:25;;;;;;;2.00;1.10;;;;;;;;;;5013747;28;20448;-73
2022/07/04 03:37:52;;;;;;;1.40;1.40;;;;;;;;;;5013708;28;20443;-73
2022/07/04 03:40:21;;;;;;;1.47;1.37;;;;;;;;;;5013731;28;20409;-73
2022/07/04 03:42:47;;;;;;;3.23;1.43;;;;;;;;;;5013075;28;20470;-73
2022/07/04 03:45:14;;;;;;;3.43;1.70;;;;;;;;;;5013283;28;20553;-73
2022/07/04 03:47:40;;;;;;;1.37;1.20;;;;;;;;;;5013623;28;20442;-73
2022/07/04 03:50:06;;;;;;;1.30;1.30;;;;;;;;;;5013587;28;20443;-73
2022/07/04 03:52:32;;;;;;;1.40;1.40;;;;;;;;;;4995902;28;20438;-72
2022/07/04 03:54:58;;;;;;;3.50;3.30;;;;;;;;;;5013484;28;20411;-73
2022/07/04 03:57:24;;;;;;;1.23;1.23;;;;;;;;;;5013522;28;20476;-72
2022/07/04 03:59:50;;;;;;;5.70;1.40;;;;;;;;;;5013532;28;20416;-72
2022/07/04 04:02:16;;;;;;;4.87;1.70;;;;;;;;;;5013202;28;20882;-72
2022/07/04 04:07:27;;;;;;;1.80;1.53;;;;;;;;;;5013364;28;20430;-73
2022/07/04 04:09:53;;;;;;;4.70;2.00;;;;;;;;;;5013421;28;20914;-73
2022/07/04 04:12:19;;;;;;;3.90;2.10;;;;;;;;;;5013387;28;20423;-73
2022/07/04 04:14:45;;;;;;;7.10;3.40;;;;;;;;;;5013325;28;20890;-73
2022/07/04 04:17:11;;;;;;;4.70;3.00;;;;;;;;;;4995814;28;20440;-73
2022/07/04 04:19:37;;;;;;;2.23;2.03;;;;;;;;;;5013324;28;20415;-73
2022/07/04 04:22:03;;;;;;;4.90;1.83;;;;;;;;;;5013261;28;20427;-72
2022/07/04 04:24:29;;;;;;;3.40;1.77;;;;;;;;;;4995643;28;20446;-73
2022/07/04 04:26:55;;;;;;;7.17;2.83;;;;;;;;;;5013215;28;20420;-73
2022/07/04 04:29:21;;;;;;;5.93;2.50;;;;;;;;;;5013295;28;20822;-72
2022/07/04 04:31:47;;;;;;;1.93;1.80;;;;;;;;;;5013113;28;20430;-72
2022/07/04 04:34:13;;;;;;;2.17;2.00;;;;;;;;;;5013261;28;20466;-73
2022/07/04 04:36:39;;;;;;;4.03;1.80;;;;;;;;;;5013042;28;20463;-73
2022/07/04 04:39:05;;;;;;;2.30;2.10;;;;;;;;;;5013074;28;20415;-73
2022/07/04 04:41:31;;;;;;;3.47;1.90;;;;;;;;;;5013116;28;20425;-73
2022/07/04 04:43:57;;;;;;;1.60;1.23;;;;;;;;;;5013003;28;20470;-72
2022/07/04 04:46:23;;;;;;;1.10;1.10;;;;;;;;;;5013073;28;20898;-73
2022/07/04 04:48:49;;;;;;;2.20;1.70;;;;;;;;;;5013201;28;20400;-72
2022/07/04 04:51:15;;;;;;;1.30;1.30;;;;;;;;;;5013095;28;20506;-72
2022/07/04 04:53:41;;;;;;;1.57;1.47;;;;;;;;;;5012987;28;20905;-72
2022/07/04 04:56:07;;;;;;;1.30;1.20;;;;;;;;;;5015804;28;20433;-72
2022/07/04 04:58:33;;;;;;;1.30;1.20;;;;;;;;;;5016488;28;20411;-72
2022/07/04 05:00:59;;;;;;;1.43;1.20;;;;;;;;;;5016531;28;20481;-72
2022/07/04 05:03:25;;;;;;;1.97;1.87;;;;;;;;;;5006450;28;20584;-72
2022/07/04 05:05:51;;;;;;;6.00;1.70;;;;;;;;;;5016391;28;20459;-72
2022/07/04 05:08:17;;;;;;;1.73;1.60;;;;;;;;;;5016260;28;20419;-72
2022/07/04 05:10:43;;;;;;;1.70;1.60;;;;;;;;;;5016270;28;20408;-72
2022/07/04 05:13:09;;;;;;;1.60;1.53;;;;;;;;;;5016215;28;20417;-72
2022/07/04 05:15:35;;;;;;;2.03;1.50;;;;;;;;;;5016118;28;20412;-72
2022/07/04 05:18:01;;;;;;;2.70;1.40;;;;;;;;;;5016421;28;20417;-72
2022/07/04 05:20:27;;;;;;;1.30;1.30;;;;;;;;;;5016078;28;20787;-72
2022/07/04 05:22:53;;;;;;;1.17;1.10;;;;;;;;;;5016018;28;20465;-72
2022/07/04 05:25:19;;;;;;;1.50;1.40;;;;;;;;;;5016047;28;20400;-72
2022/07/04 05:27:45;;;;;;;2.10;1.70;;;;;;;;;;5016014;28;20923;-72
2022/07/04 05:30:11;;;;;;;2.00;1.57;;;;;;;;;;5015958;28;20454;-72
2022/07/04 05:32:40;;;;;;;1.30;1.30;;;;;;;;;;5015947;28;20413;-72
2022/07/04 05:35:07;;;;;;;3.33;1.40;;;;;;;;;;5015810;28;20416;-72
2022/07/04 05:37:33;;;;;;;5.07;1.73;;;;;;;;;;5015770;28;20961;-72
2022/07/04 05:39:59;;;;;;;1.83;1.73;;;;;;;;;;5015667;28;20449;-72
2022/07/04 05:42:25;;;;;;;1.40;1.30;;;;;;;;;;5014337;28;20503;-72
2022/07/04 05:44:51;;;;;;;2.10;1.63;;;;;;;;;;5015638;28;20415;-72
2022/07/04 05:47:17;;;;;;;1.93;1.83;;;;;;;;;;5015600;28;20956;-72
2022/07/04 05:49:43;;;;;;;3.20;1.87;;;;;;;;;;5015567;28;20446;-72
2022/07/04 05:52:09;;;;;;;4.80;1.90;;;;;;;;;;5015541;28;20414;-72
2022/07/04 05:54:35;;;;;;;1.90;1.40;;;;;;;;;;5015422;28;20505;-72
2022/07/04 05:57:01;;;;;;;3.90;1.60;;;;;;;;;;5015361;28;20450;-72
2022/07/04 05:59:29;;;;;;;1.70;1.60;;;;;;;;;;5015332;28;20513;-72
2022/07/04 06:01:55;;;;;;;3.33;1.43;;;;;;;;;;5015393;28;20439;-72
2022/07/04 06:04:21;;;;;;;4.83;1.43;;;;;;;;;;5015089;28;20513;-72
2022/07/04 06:06:47;;;;;;;1.70;1.60;;;;;;;;;;4996823;28;20431;-72
2022/07/04 06:09:13;;;;;;;1.50;1.47;;;;;;;;;;4997637;28;20430;-72
2022/07/04 06:11:39;;;;;;;1.83;1.67;;;;;;;;;;5015077;28;20774;-72
2022/07/04 06:14:05;;;;;;;2.10;1.60;;;;;;;;;;5014843;28;20414;-72
2022/07/04 06:16:31;;;;;;;3.30;2.00;;;;;;;;;;5014970;28;20430;-72
2022/07/04 06:18:57;;;;;;;7.80;1.37;;;;;;;;;;4997434;28;20446;-72
2022/07/04 06:21:23;;;;;;;2.00;2.00;;;;;;;;;;5014926;28;20465;-73
2022/07/04 06:23:49;;;;;;;9.83;2.33;;;;;;;;;;5014869;28;20477;-73
2022/07/04 06:26:15;;;;;;;1.47;1.37;;;;;;;;;;5014838;28;20414;-73
2022/07/04 06:28:41;;;;;;;1.50;1.50;;;;;;;;;;5014910;28;20418;-72
2022/07/04 06:31:07;;;;;;;1.53;1.53;;;;;;;;;;4997224;28;20409;-72
2022/07/04 06:35:44;;;;;;;6.13;1.80;;;;;;;;;;5015110;28;21008;-72
2022/07/04 06:36:19;;;;;;;2.00;1.30;;;;;;;;;;5014435;28;20482;-72
2022/07/04 06:38:45;;;;;;;1.30;1.30;;;;;;;;;;5014517;28;20404;-73
2022/07/04 06:41:11;;;;;;;3.03;1.40;;;;;;;;;;5014544;28;20910;-72
2022/07/04 06:43:37;;;;;;;1.50;1.40;;;;;;;;;;4996863;28;20476;-72
2022/07/04 06:46:03;;;;;;;2.40;1.87;;;;;;;;;;5014489;28;20400;-73
2022/07/04 06:48:29;;;;;;;1.50;1.50;;;;;;;;;;5014435;28;20411;-73
2022/07/04 06:50:55;;;;;;;1.37;1.37;;;;;;;;;;5014443;28;20505;-72
2022/07/04 06:53:21;;;;;;;2.57;1.70;;;;;;;;;;5014429;28;20894;-73
2022/07/04 06:55:48;;;;;;;1.73;1.63;;;;;;;;;;5014344;28;20403;-73
2022/07/04 06:58:14;;;;;;;3.23;1.80;;;;;;;;;;5014265;28;20908;-72
2022/07/04 07:00:41;;;;;;;3.43;1.60;;;;;;;;;;5014358;28;20407;-72
2022/07/04 07:03:07;;;;;;;1.80;1.70;;;;;;;;;;5014028;28;20489;-73
2022/07/04 07:05:36;;;;;;;1.57;1.40;;;;;;;;;;5014159;28;20521;-72
2022/07/04 07:08:02;;;;;;;2.30;1.53;;;;;;;;;;4996546;28;20420;-72
2022/07/04 07:10:28;;;;;;;12.70;2.47;;;;;;;;;;5014166;28;20838;-72
2022/07/04 07:12:54;;;;;;;2.93;1.83;;;;;;;;;;5014000;28;20814;-72
2022/07/04 07:15:20;;;;;;;8.10;1.93;;;;;;;;;;5013981;28;20424;-73
2022/07/04 07:17:47;;;;;;;1.70;1.70;;;;;;;;;;5014200;28;20466;-72
2022/07/04 07:20:13;;;;;;;3.80;2.00;;;;;;;;;;5014015;28;20461;-72
2022/07/04 07:22:40;;;;;;;12.53;1.90;;;;;;;;;;4996224;28;20851;-72
2022/07/04 07:25:06;;;;;;;2.33;1.70;;;;;;;;;;5013837;28;20448;-74
2022/07/04 07:27:32;;;;;;;1.47;1.37;;;;;;;;;;4996297;28;20919;-73
2022/07/04 07:29:58;;;;;;;1.90;1.90;;;;;;;;;;5014040;28;20427;-72
2022/07/04 07:32:24;;;;;;;1.90;1.63;;;;;;;;;;5013957;28;20420;-72
2022/07/04 07:34:50;;;;;;;1.83;1.73;;;;;;;;;;5013921;28;20550;-73
2022/07/04 07:37:17;;;;;;;2.87;1.90;;;;;;;;;;5013759;28;20935;-73
2022/07/04 07:39:43;;;;;;;5.50;2.07;;;;;;;;;;5013811;28;20483;-73
2022/07/04 07:42:09;;;;;;;3.07;1.83;;;;;;;;;;5013758;28;20503;-72
2022/07/04 07:44:35;;;;;;;2.53;1.80;;;;;;;;;;5013770;28;20459;-73
2022/07/04 07:47:02;;;;;;;1.70;1.40;;;;;;;;;;5013736;28;20416;-72
2022/07/04 07:49:28;;;;;;;1.70;1.60;;;;;;;;;;4996116;28;20424;-73
2022/07/04 07:51:55;;;;;;;4.23;1.70;;;;;;;;;;5013584;28;20434;-72
2022/07/04 07:54:22;;;;;;;1.60;1.50;;;;;;;;;;5013665;28;20413;-73
2022/07/04 07:56:48;;;;;;;9.50;2.00;;;;;;;;;;5013795;28;20410;-72
2022/07/04 07:59:14;;;;;;;4.17;2.90;;;;;;;;;;5013609;28;20413;-72
2022/07/04 08:01:40;;;;;;;7.60;2.07;;;;;;;;;;5013579;28;20423;-73
2022/07/04 08:06:50;;;;;;;10.67;1.83;;;;;;;;;;5013569;28;20461;-73
2022/07/04 08:09:16;;;;;;;2.27;2.17;;;;;;;;;;5013558;28;20424;-73
2022/07/04 08:11:42;;;;;;;2.13;2.03;;;;;;;;;;5013506;28;20449;-73
2022/07/04 08:14:09;;;;;;;2.10;2.00;;;;;;;;;;5013478;28;20430;-72
2022/07/04 08:16:35;;;;;;;2.70;1.67;;;;;;;;;;5013509;28;20390;-72
2022/07/04 08:19:01;;;;;;;2.30;2.10;;;;;;;;;;4995580;28;20462;-72
2022/07/04 08:21:27;;;;;;;2.03;1.90;;;;;;;;;;5013141;28;20417;-73
2022/07/04 08:23:53;;;;;;;3.23;1.93;;;;;;;;;;5013172;28;20518;-73
2022/07/04 08:26:19;;;;;;;10.83;2.73;;;;;;;;;;5013279;28;20411;-72
2022/07/04 08:28:45;;;;;;;2.07;2.00;;;;;;;;;;4995710;28;20431;-73
2022/07/04 08:31:12;;;;;;;3.43;2.30;;;;;;;;;;5016516;28;20414;-72
2022/07/04 08:33:38;;;;;;;2.03;1.93;;;;;;;;;;5017177;28;20423;-73
2022/07/04 08:36:04;;;;;;;3.20;2.33;;;;;;;;;;5016994;28;20453;-72
2022/07/04 08:38:30;;;;;;;2.03;1.93;;;;;;;;;;5017183;28;20533;-72
2022/07/04 08:40:57;;;;;;;1.97;1.90;;;;;;;;;;5016954;28;20419;-73
2022/07/04 08:43:25;;;;;;;3.53;2.33;;;;;;;;;;5016892;28;20971;-72
2022/07/04 08:45:52;;;;;;;2.33;1.80;;;;;;;;;;5016771;28;20400;-72
2022/07/04 08:48:19;;;;;;;2.63;2.10;;;;;;;;;;5016830;28;21098;-72
2022/07/04 08:50:49;;;;;;;3.33;2.00;;;;;;;;;;5016751;28;20514;-72
2022/07/04 08:53:18;;;;;;;2.50;2.30;;;;;;;;;;5016719;28;20432;-72
2022/07/04 08:58:31;;;;;;;2.10;2.10;;;;;;;;;;5016627;28;20807;-71
2022/07/04 09:01:05;;;;;;;6.30;2.00;;;;;;;;;;5016572;28;20406;-70
2022/07/04 09:03:31;;;;;;;4.97;2.40;;;;;;;;;;5016413;28;20485;-72
2022/07/04 09:05:57;;;;;;;3.13;2.50;;;;;;;;;;5016444;28;20957;-72
2022/07/04 09:08:24;;;;;;;2.00;2.00;;;;;;;;;;5016465;28;20447;-72
2022/07/04 09:10:50;;;;;;;2.90;1.77;;;;;;;;;;5016442;28;20876;-70
2022/07/04 09:13:19;;;;;;;2.63;2.43;;;;;;;;;;5016385;28;20424;-71
2022/07/04 09:15:46;;;;;;;1.83;1.73;;;;;;;;;;5016538;28;20454;-72
2022/07/04 09:18:24;;;;;;;3.73;1.83;;;;;;;;;;5016164;28;20410;-72
2022/07/04 09:20:50;;;;;;;2.30;2.10;;;;;;;;;;5016206;28;20915;-72
2022/07/04 09:23:17;;;;;;;2.60;2.17;;;;;;;;;;5016115;28;20469;-72
2022/07/04 09:25:43;;;;;;;1.70;1.60;;;;;;;;;;5016118;28;20555;-72
2022/07/04 09:28:09;;;;;;;5.40;1.90;;;;;;;;;;5016074;28;20820;-71
2022/07/04 09:30:47;;;;;;;4.43;1.80;;;;;;;;;;5015929;28;20419;-71
2022/07/04 09:33:13;;;;;;;2.33;2.23;;;;;;;;;;4998717;28;20422;-72
2022/07/04 09:35:39;;;;;;;5.13;1.90;;;;;;;;;;4998229;28;20806;-72
2022/07/04 09:38:05;;;;;;;10.17;2.37;;;;;;;;;;5015828;28;20423;-72
2022/07/04 09:40:32;;;;;;;3.17;1.93;;;;;;;;;;5015537;28;20428;-71
2022/07/04 09:43:00;;;;;;;1.93;1.83;;;;;;;;;;5014939;28;20474;-72
2022/07/04 09:45:26;;;;;;;5.47;2.00;;;;;;;;;;5015917;28;20421;-71
2022/07/04 09:47:56;;;;;;;2.33;1.33;;;;;;;;;;5015786;28;20408;-72
2022/07/04 09:50:23;;;;;;;4.40;1.80;;;;;;;;;;5015772;28;20412;-72
2022/07/04 09:52:50;;;;;;;1.73;1.70;;;;;;;;;;5015635;28;20403;-72
2022/07/04 09:55:21;;;;;;;3.37;1.73;;;;;;;;;;5015768;28;20417;-72
2022/07/04 09:57:47;;;;;;;3.87;1.80;;;;;;;;;;5015574;28;20443;-72
2022/07/04 10:00:17;;;;;;;1.80;1.70;;;;;;;;;;5015526;28;20809;-72
2022/07/04 10:02:43;;;;;;;4.40;1.67;;;;;;;;;;5015321;28;20476;-73
2022/07/04 10:05:09;;;;;;;2.60;1.87;;;;;;;;;;5015387;28;20899;-72
2022/07/04 10:07:36;;;;;;;5.03;1.80;;;;;;;;;;4997907;28;20450;-71
2022/07/04 10:10:22;;;;;;;1.77;1.60;;;;;;;;;;5015402;28;20416;-71
2022/07/04 10:12:53;;;;;;;2.20;1.60;;;;;;;;;;5015272;28;20507;-71
2022/07/04 10:15:19;;;;;;;5.67;1.50;;;;;;;;;;5015280;28;20407;-71
2022/07/04 10:17:45;;;;;;;3.33;1.70;;;;;;;;;;5015304;28;20411;-71
2022/07/04 10:20:11;;;;;;;1.97;1.80;;;;;;;;;;5015180;28;20404;-71
2022/07/04 10:22:37;;;;;;;3.23;1.93;;;;;;;;;;5014994;28;20974;-71
2022/07/04 10:25:04;;;;;;;1.80;1.70;;;;;;;;;;5015081;28;20457;-73
2022/07/04 10:27:30;;;;;;;8.13;2.17;;;;;;;;;;5014960;28;20416;-71
2022/07/04 10:29:58;;;;;;;1.90;1.80;;;;;;;;;;5014906;28;20400;-72
2022/07/04 10:32:24;;;;;;;1.30;1.30;;;;;;;;;;5014792;28;20415;-72
2022/07/04 10:34:50;;;;;;;2.00;1.90;;;;;;;;;;5014824;28;20404;-72
2022/07/04 10:37:17;;;;;;;1.50;1.50;;;;;;;;;;5014694;28;20427;-72
2022/07/04 10:39:43;;;;;;;2.07;1.97;;;;;;;;;;5014713;28;20868;-72
2022/07/04 10:42:09;;;;;;;1.63;1.63;;;;;;;;;;5014602;28;20419;-70
2022/07/04 10:44:38;;;;;;;4.03;1.70;;;;;;;;;;4996811;28;20476;-72
2022/07/04 10:47:05;;;;;;;2.50;1.90;;;;;;;;;;5014669;28;20396;-72
2022/07/04 10:49:31;;;;;;;3.70;1.57;;;;;;;;;;5014793;28;20450;-72
2022/07/04 10:52:10;;;;;;;2.00;1.90;;;;;;;;;;5014263;28;20422;-72
2022/07/04 10:54:38;;;;;;;4.53;1.70;;;;;;;;;;5014744;28;20911;-72
2022/07/04 10:57:16;;;;;;;2.20;1.70;;;;;;;;;;5014676;28;20397;-71
2022/07/04 10:59:44;;;;;;;4.40;1.90;;;;;;;;;;5014336;28;20774;-72
2022/07/04 11:02:13;;;;;;;1.90;1.80;;;;;;;;;;5014425;28;20408;-72
2022/07/04 11:04:51;;;;;;;3.17;1.63;;;;;;;;;;5014359;28;20475;-72
2022/07/04 11:07:21;;;;;;;2.10;1.90;;;;;;;;;;5014345;28;20500;-73
2022/07/04 11:10:07;;;;;;;3.40;1.57;;;;;;;;;;5014336;28;20451;-72
2022/07/04 11:12:33;;;;;;;1.93;1.80;;;;;;;;;;5014212;28;20417;-72
2022/07/04 11:14:59;;;;;;;1.87;1.67;;;;;;;;;;4996603;28;20912;-72
2022/07/04 11:17:33;;;;;;;1.90;1.80;;;;;;;;;;5014243;28;20500;-72
2022/07/04 11:20:03;;;;;;;2.23;1.80;;;;;;;;;;5014371;28;20444;-73
2022/07/04 11:22:29;;;;;;;5.63;1.93;;;;;;;;;;5013968;28;20466;-72
2022/07/04 11:24:55;;;;;;;3.13;2.10;;;;;;;;;;5014083;28;20427;-72
2022/07/04 11:27:22;;;;;;;2.70;1.50;;;;;;;;;;5014094;28;20431;-72
2022/07/04 11:29:54;;;;;;;1.60;1.50;;;;;;;;;;5014074;28;20413;-73
2022/07/04 11:32:21;;;;;;;2.50;1.43;;;;;;;;;;5013926;28;20463;-72
2022/07/04 11:34:47;;;;;;;2.70;1.50;;;;;;;;;;5013926;28;20413;-72
2022/07/04 11:37:13;;;;;;;2.43;1.67;;;;;;;;;;5013912;28;20412;-72
2022/07/04 11:39:39;;;;;;;1.20;1.20;;;;;;;;;;5013783;28;20432;-73
2022/07/04 11:45:02;;;;;;;1.60;1.50;;;;;;;;;;5013924;28;20420;-72
2022/07/04 11:47:38;;;;;;;1.50;1.40;;;;;;;;;;4996119;28;20492;-72
2022/07/04 11:50:05;;;;;;;1.67;1.07;;;;;;;;;;5013750;28;20413;-72
2022/07/04 11:52:40;;;;;;;1.73;1.63;;;;;;;;;;5013741;28;20961;-70
2022/07/04 11:55:06;;;;;;;1.60;1.50;;;;;;;;;;5013762;28;20471;-71
2022/07/04 11:57:39;;;;;;;1.53;1.40;;;;;;;;;;5013719;28;20401;-72
2022/07/04 12:00:14;;;;;;;1.20;1.20;;;;;;;;;;5013628;28;20806;-72
2022/07/04 12:02:41;;;;;;;5.73;1.70;;;;;;;;;;5013409;28;20567;-73
2022/07/04 12:05:08;;;;;;;1.50;1.40;;;;;;;;;;5015096;28;20414;-72
2022/07/04 12:07:37;;;;;;;1.83;1.13;;;;;;;;;;5017637;28;20436;-73
2022/07/04 12:10:17;;;;;;;3.70;1.77;;;;;;;;;;5017578;28;20413;-72
2022/07/04 12:12:59;;;;;;;1.80;1.50;;;;;;;;;;5017573;28;20405;-73
2022/07/04 12:15:26;;;;;;;1.60;1.50;;;;;;;;;;5017583;28;20417;-72
2022/07/04 12:17:54;;;;;;;1.97;1.37;;;;;;;;;;4999824;28;20799;-72
2022/07/04 12:20:20;;;;;;;1.83;1.47;;;;;;;;;;4999859;28;20432;-72
2022/07/04 12:22:49;;;;;;;3.37;1.37;;;;;;;;;;5017317;28;20522;-72
2022/07/04 12:25:38;;;;;;;1.43;1.33;;;;;;;;;;5017359;28;20405;-72
2022/07/04 12:28:05;;;;;;;3.03;1.20;;;;;;;;;;5017390;28;20413;-73
2022/07/04 12:30:38;;;;;;;1.67;1.40;;;;;;;;;;5017222;28;20539;-72
2022/07/04 12:33:05;;;;;;;2.20;1.50;;;;;;;;;;5017244;28;20416;-72
2022/07/04 12:35:44;;;;;;;2.30;1.50;;;;;;;;;;5017149;28;20908;-72
2022/07/04 12:38:14;;;;;;;5.43;1.40;;;;;;;;;;5017095;28;20444;-72
2022/07/04 12:40:51;;;;;;;7.07;1.97;;;;;;;;;;5017313;28;20401;-72
2022/07/04 12:43:17;;;;;;;1.50;1.40;;;;;;;;;;5017098;28;20533;-72
2022/07/04 12:45:50;;;;;;;2.50;1.40;;;;;;;;;;5016922;28;20420;-72
2022/07/04 12:48:35;;;;;;;3.47;1.10;;;;;;;;;;5017101;28;20854;-72
2022/07/04 12:51:11;;;;;;;1.70;1.60;;;;;;;;;;5016879;28;20413;-72
2022/07/04 12:53:38;;;;;;;1.67;1.57;;;;;;;;;;5016818;28;20416;-72
2022/07/04 12:56:04;;;;;;;1.50;1.50;;;;;;;;;;5016892;28;20405;-72
2022/07/04 12:58:30;;;;;;;1.50;1.40;;;;;;;;;;5016771;28;20405;-71
2022/07/04 13:00:56;;;;;;;1.40;1.40;;;;;;;;;;5016692;28;20397;-71
2022/07/04 13:03:23;;;;;;;4.50;1.40;;;;;;;;;;5016492;28;20501;-72
2022/07/04 13:05:49;;;;;;;1.30;1.30;;;;;;;;;;5016497;28;20413;-72
2022/07/04 13:08:15;;;;;;;1.53;1.27;;;;;;;;;;4998849;28;20412;-71
2022/07/04 13:10:41;;;;;;;5.70;1.40;;;;;;;;;;5016391;28;20427;-71
2022/07/04 13:13:07;;;;;;;2.97;1.80;;;;;;;;;;5016297;28;20409;-71
2022/07/04 13:15:33;;;;;;;1.43;1.43;;;;;;;;;;5015933;28;20463;-70
2022/07/04 13:17:59;;;;;;;2.10;1.40;;;;;;;;;;5016200;28;20509;-70
2022/07/04 13:20:25;;;;;;;3.23;1.53;;;;;;;;;;5016135;28;20496;-71
2022/07/04 13:22:51;;;;;;;1.30;1.30;;;;;;;;;;5016067;28;20602;-70
2022/07/04 13:25:18;;;;;;;1.10;1.10;;;;;;;;;;5016320;28;20869;-71
2022/07/04 13:27:44;;;;;;;2.10;1.40;;;;;;;;;;5016122;28;20397;-72
2022/07/04 13:30:10;;;;;;;1.60;1.50;;;;;;;;;;5016067;28;20436;-72
2022/07/04 13:32:37;;;;;;;1.50;1.50;;;;;;;;;;5016000;28;20405;-71
2022/07/04 13:35:03;;;;;;;1.20;1.20;;;;;;;;;;5016082;28;20409;-72
2022/07/04 13:37:29;;;;;;;3.27;1.37;;;;;;;;;;5015830;28;20439;-72
2022/07/04 13:39:55;;;;;;;3.50;1.73;;;;;;;;;;5016171;28;20772;-72
2022/07/04 13:45:07;;;;;;;3.13;1.43;;;;;;;;;;5015822;28;20853;-71
2022/07/04 13:47:33;;;;;;;2.23;1.70;;;;;;;;;;5015751;28;20496;-73
2022/07/04 13:49:59;;;;;;;1.60;1.60;;;;;;;;;;4998049;28;20464;-72
2022/07/04 13:52:25;;;;;;;1.40;1.40;;;;;;;;;;5015557;28;20456;-72
2022/07/04 13:54:51;;;;;;;1.63;1.53;;;;;;;;;;5015535;28;20432;-71
2022/07/04 13:57:17;;;;;;;5.07;1.27;;;;;;;;;;5015502;28;20900;-72
2022/07/04 13:59:43;;;;;;;5.30;1.20;;;;;;;;;;5015554;28;20793;-72
2022/07/04 14:02:09;;;;;;;1.63;1.13;;;;;;;;;;5015177;28;20535;-73
2022/07/04 14:04:35;;;;;;;2.10;1.27;;;;;;;;;;5015377;28;20895;-73
2022/07/04 14:07:01;;;;;;;2.57;1.40;;;;;;;;;;5015273;28;20413;-74
2022/07/04 14:09:27;;;;;;;2.00;1.40;;;;;;;;;;5015343;28;20181;-72
2022/07/04 14:11:53;;;;;;;1.87;1.30;;;;;;;;;;5015246;28;20794;-72
2022/07/04 14:14:19;;;;;;;1.17;1.17;;;;;;;;;;5015132;28;20410;-71
2022/07/04 14:16:45;;;;;;;1.50;1.30;;;;;;;;;;5015270;28;20869;-72
2022/07/04 14:19:11;;;;;;;1.40;1.30;;;;;;;;;;5015082;28;20405;-71
2022/07/04 14:21:37;;;;;;;2.20;1.60;;;;;;;;;;4997514;28;20448;-72
2022/07/04 14:24:03;;;;;;;1.53;1.43;;;;;;;;;;5015001;28;20471;-72
2022/07/04 14:26:29;;;;;;;3.80;1.60;;;;;;;;;;5014972;28;20413;-71
2022/07/04 14:28:55;;;;;;;1.57;1.57;;;;;;;;;;5014291;28;20409;-72
2022/07/04 14:31:21;;;;;;;1.80;1.70;;;;;;;;;;5014935;28;20479;-73
2022/07/04 14:33:47;;;;;;;2.77;1.77;;;;;;;;;;5014840;28;20544;-72
2022/07/04 14:36:13;;;;;;;2.30;1.53;;;;;;;;;;5014773;28;20432;-71
2022/07/04 14:38:39;;;;;;;1.90;1.70;;;;;;;;;;5014790;28;20408;-73
2022/07/04 14:41:11;;;;;;;1.57;1.47;;;;;;;;;;4997137;28;20800;-72
2022/07/04 14:43:38;;;;;;;1.40;1.40;;;;;;;;;;4996998;28;20476;-72
2022/07/04 14:46:04;;;;;;;1.40;1.30;;;;;;;;;;5014554;28;20782;-72
2022/07/04 14:48:30;;;;;;;1.50;1.50;;;;;;;;;;5014656;28;20410;-72
2022/07/04 14:50:56;;;;;;;3.07;1.50;;;;;;;;;;5014310;28;20853;-72
2022/07/04 14:53:22;;;;;;;6.10;1.50;;;;;;;;;;5013366;28;20413;-72
2022/07/04 14:55:48;;;;;;;2.30;2.13;;;;;;;;;;5014462;28;20397;-73
2022/07/04 14:58:14;;;;;;;1.90;1.80;;;;;;;;;;5014521;28;20884;-69
2022/07/04 15:00:40;;;;;;;2.93;1.70;;;;;;;;;;5014479;28;20853;-69